sensor_id;sensor_type;location;lat;lon;timestamp;pressure;altitude;pressure_sealevel;temperature;humidity
12219;BME280;6172;42.646;23.344;2023-12-20T00:00:35;95003.97;;;-0.61;100.00
12219;BME280;6172;42.646;23.344;2023-12-20T00:03:03;94993.47;;;-0.66;100.00
12219;BME280;6172;42.646;23.344;2023-12-20T00:05:31;94990.34;;;-0.56;100.00
12219;BME280;6172;42.646;23.344;2023-12-20T00:07:59;94982.09;;;-0.63;100.00
12219;BME280;6172;42.646;23.344;2023-12-20T00:10:26;94981.00;;;-0.62;100.00
12219;BME280;6172;42.646;23.344;2023-12-20T00:12:53;94986.56;;;-0.67;100.00
12219;BME280;6172;42.646;23.344;2023-12-20T00:15:21;94984.75;;;-0.63;100.00
12219;BME280;6172;42.646;23.344;2023-12-20T00:17:48;94987.22;;;-0.58;100.00
12219;BME280;6172;42.646;23.344;2023-12-20T00:20:15;94974.09;;;-0.75;100.00
12219;BME280;6172;42.646;23.344;2023-12-20T00:22:43;94978.19;;;-0.78;100.00
12219;BME280;6172;42.646;23.344;2023-12-20T00:25:12;94962.59;;;-0.88;100.00
12219;BME280;6172;42.646;23.344;2023-12-20T00:27:39;94969.63;;;-0.83;100.00
12219;BME280;6172;42.646;23.344;2023-12-20T00:30:07;94968.50;;;-0.82;100.00
12219;BME280;6172;42.646;23.344;2023-12-20T00:32:36;94971.84;;;-0.85;100.00
12219;BME280;6172;42.646;23.344;2023-12-20T00:35:04;94964.59;;;-0.85;100.00
12219;BME280;6172;42.646;23.344;2023-12-20T00:37:31;94966.59;;;-1.06;100.00
12219;BME280;6172;42.646;23.344;2023-12-20T00:39:58;94956.91;;;-1.10;100.00
12219;BME280;6172;42.646;23.344;2023-12-20T00:42:25;94951.09;;;-1.24;100.00
12219;BME280;6172;42.646;23.344;2023-12-20T00:44:52;94943.16;;;-1.21;100.00
12219;BME280;6172;42.646;23.344;2023-12-20T00:47:19;94941.03;;;-1.39;100.00
12219;BME280;6172;42.646;23.344;2023-12-20T00:49:49;94939.03;;;-1.54;100.00
12219;BME280;6172;42.646;23.344;2023-12-20T00:52:16;94944.41;;;-1.30;100.00
12219;BME280;6172;42.646;23.344;2023-12-20T00:54:44;94935.72;;;-1.27;100.00
12219;BME280;6172;42.646;23.344;2023-12-20T00:57:11;94943.59;;;-1.31;100.00
12219;BME280;6172;42.646;23.344;2023-12-20T00:59:38;94941.75;;;-1.18;100.00
12219;BME280;6172;42.646;23.344;2023-12-20T01:02:05;94926.59;;;-1.14;100.00
12219;BME280;6172;42.646;23.344;2023-12-20T01:04:32;94934.84;;;-1.07;100.00
12219;BME280;6172;42.646;23.344;2023-12-20T01:07:01;94925.34;;;-1.05;100.00
12219;BME280;6172;42.646;23.344;2023-12-20T01:09:28;94920.56;;;-0.99;100.00
12219;BME280;6172;42.646;23.344;2023-12-20T01:11:55;94911.53;;;-0.95;100.00
12219;BME280;6172;42.646;23.344;2023-12-20T01:14:22;94916.56;;;-0.93;100.00
12219;BME280;6172;42.646;23.344;2023-12-20T01:16:49;94915.22;;;-0.99;100.00
12219;BME280;6172;42.646;23.344;2023-12-20T01:19:16;94902.28;;;-0.97;100.00
12219;BME280;6172;42.646;23.344;2023-12-20T01:21:43;94907.75;;;-0.94;100.00
12219;BME280;6172;42.646;23.344;2023-12-20T01:24:11;94908.41;;;-0.85;100.00
12219;BME280;6172;42.646;23.344;2023-12-20T01:26:38;94906.72;;;-0.89;100.00
12219;BME280;6172;42.646;23.344;2023-12-20T01:29:05;94898.91;;;-1.67;100.00
12219;BME280;6172;42.646;23.344;2023-12-20T01:31:33;94894.38;;;-1.42;100.00
12219;BME280;6172;42.646;23.344;2023-12-20T01:34:00;94895.63;;;-1.27;100.00
12219;BME280;6172;42.646;23.344;2023-12-20T01:36:27;94892.94;;;-1.27;100.00
12219;BME280;6172;42.646;23.344;2023-12-20T01:38:54;94895.84;;;-1.20;100.00
12219;BME280;6172;42.646;23.344;2023-12-20T01:41:23;94879.44;;;-1.31;100.00
12219;BME280;6172;42.646;23.344;2023-12-20T01:43:50;94886.47;;;-1.26;100.00
12219;BME280;6172;42.646;23.344;2023-12-20T01:46:19;94882.78;;;-1.22;100.00
12219;BME280;6172;42.646;23.344;2023-12-20T01:48:47;94873.44;;;-1.28;100.00
12219;BME280;6172;42.646;23.344;2023-12-20T01:51:14;94876.66;;;-1.22;100.00
12219;BME280;6172;42.646;23.344;2023-12-20T01:53:42;94863.06;;;-1.17;100.00
12219;BME280;6172;42.646;23.344;2023-12-20T01:56:09;94852.38;;;-1.17;100.00
12219;BME280;6172;42.646;23.344;2023-12-20T01:58:39;94858.50;;;-1.29;100.00
12219;BME280;6172;42.646;23.344;2023-12-20T02:01:11;94848.38;;;-1.23;100.00
12219;BME280;6172;42.646;23.344;2023-12-20T02:03:39;94862.63;;;-1.19;100.00
12219;BME280;6172;42.646;23.344;2023-12-20T02:06:07;94849.47;;;-1.36;100.00
12219;BME280;6172;42.646;23.344;2023-12-20T02:08:35;94841.94;;;-1.34;100.00
12219;BME280;6172;42.646;23.344;2023-12-20T02:11:02;94842.25;;;-1.36;100.00
12219;BME280;6172;42.646;23.344;2023-12-20T02:13:30;94841.34;;;-1.28;100.00
12219;BME280;6172;42.646;23.344;2023-12-20T02:15:59;94838.59;;;-1.31;100.00
12219;BME280;6172;42.646;23.344;2023-12-20T02:18:27;94829.66;;;-1.35;100.00
12219;BME280;6172;42.646;23.344;2023-12-20T02:20:55;94836.22;;;-1.45;100.00
12219;BME280;6172;42.646;23.344;2023-12-20T02:23:24;94834.91;;;-1.39;100.00
12219;BME280;6172;42.646;23.344;2023-12-20T02:25:51;94823.88;;;-1.49;100.00
12219;BME280;6172;42.646;23.344;2023-12-20T02:28:18;94825.00;;;-1.50;100.00
12219;BME280;6172;42.646;23.344;2023-12-20T02:30:47;94822.31;;;-1.50;100.00
12219;BME280;6172;42.646;23.344;2023-12-20T02:33:15;94825.66;;;-1.41;100.00
12219;BME280;6172;42.646;23.344;2023-12-20T02:35:42;94811.06;;;-1.44;100.00
12219;BME280;6172;42.646;23.344;2023-12-20T02:38:09;94814.31;;;-1.50;100.00
12219;BME280;6172;42.646;23.344;2023-12-20T02:40:38;94807.84;;;-1.37;100.00
12219;BME280;6172;42.646;23.344;2023-12-20T02:43:05;94800.28;;;-1.47;100.00
12219;BME280;6172;42.646;23.344;2023-12-20T02:45:32;94795.75;;;-2.16;100.00
12219;BME280;6172;42.646;23.344;2023-12-20T02:47:59;94802.25;;;-2.05;100.00
12219;BME280;6172;42.646;23.344;2023-12-20T02:50:26;94812.13;;;-2.05;100.00
12219;BME280;6172;42.646;23.344;2023-12-20T02:52:53;94797.31;;;-2.03;100.00
12219;BME280;6172;42.646;23.344;2023-12-20T02:55:20;94804.81;;;-1.96;100.00
12219;BME280;6172;42.646;23.344;2023-12-20T02:57:48;94794.28;;;-2.13;100.00
12219;BME280;6172;42.646;23.344;2023-12-20T03:00:16;94796.53;;;-2.15;100.00
12219;BME280;6172;42.646;23.344;2023-12-20T03:02:43;94804.91;;;-2.05;100.00
12219;BME280;6172;42.646;23.344;2023-12-20T03:05:10;94806.00;;;-2.06;100.00
12219;BME280;6172;42.646;23.344;2023-12-20T03:07:38;94796.72;;;-2.32;100.00
12219;BME280;6172;42.646;23.344;2023-12-20T03:10:06;94804.22;;;-2.14;100.00
12219;BME280;6172;42.646;23.344;2023-12-20T03:12:33;94801.09;;;-2.16;100.00
12219;BME280;6172;42.646;23.344;2023-12-20T03:15:02;94797.97;;;-2.18;100.00
12219;BME280;6172;42.646;23.344;2023-12-20T03:17:29;94802.63;;;-2.27;100.00
12219;BME280;6172;42.646;23.344;2023-12-20T03:19:56;94803.31;;;-2.18;100.00
12219;BME280;6172;42.646;23.344;2023-12-20T03:22:23;94807.75;;;-2.22;100.00
12219;BME280;6172;42.646;23.344;2023-12-20T03:24:50;94801.53;;;-2.58;100.00
12219;BME280;6172;42.646;23.344;2023-12-20T03:27:17;94800.47;;;-2.45;100.00
12219;BME280;6172;42.646;23.344;2023-12-20T03:29:44;94795.22;;;-2.95;100.00
12219;BME280;6172;42.646;23.344;2023-12-20T03:32:13;94790.63;;;-3.27;100.00
12219;BME280;6172;42.646;23.344;2023-12-20T03:34:40;94791.44;;;-3.35;100.00
12219;BME280;6172;42.646;23.344;2023-12-20T03:37:07;94797.97;;;-3.24;100.00
12219;BME280;6172;42.646;23.344;2023-12-20T03:39:34;94791.44;;;-3.35;100.00
12219;BME280;6172;42.646;23.344;2023-12-20T03:42:02;94791.72;;;-3.28;100.00
12219;BME280;6172;42.646;23.344;2023-12-20T03:44:29;94793.72;;;-3.45;100.00
12219;BME280;6172;42.646;23.344;2023-12-20T03:46:56;94796.34;;;-3.37;100.00
12219;BME280;6172;42.646;23.344;2023-12-20T03:49:25;94795.31;;;-3.24;100.00
12219;BME280;6172;42.646;23.344;2023-12-20T03:51:52;94804.34;;;-3.16;100.00
12219;BME280;6172;42.646;23.344;2023-12-20T03:54:19;94783.00;;;-3.16;100.00
12219;BME280;6172;42.646;23.344;2023-12-20T03:56:46;94784.97;;;-3.05;100.00
12219;BME280;6172;42.646;23.344;2023-12-20T03:59:14;94778.84;;;-2.85;100.00
12219;BME280;6172;42.646;23.344;2023-12-20T04:01:43;94784.00;;;-2.68;100.00
12219;BME280;6172;42.646;23.344;2023-12-20T04:04:10;94787.88;;;-2.45;100.00
12219;BME280;6172;42.646;23.344;2023-12-20T04:06:39;94777.47;;;-2.38;100.00
12219;BME280;6172;42.646;23.344;2023-12-20T04:09:07;94774.81;;;-2.26;100.00
12219;BME280;6172;42.646;23.344;2023-12-20T04:11:36;94771.28;;;-2.18;100.00
12219;BME280;6172;42.646;23.344;2023-12-20T04:14:03;94766.38;;;-2.16;100.00
12219;BME280;6172;42.646;23.344;2023-12-20T04:16:31;94763.47;;;-2.23;100.00
12219;BME280;6172;42.646;23.344;2023-12-20T04:18:58;94756.88;;;-2.37;100.00
12219;BME280;6172;42.646;23.344;2023-12-20T04:21:25;94763.94;;;-2.21;100.00
12219;BME280;6172;42.646;23.344;2023-12-20T04:23:54;94767.34;;;-2.32;100.00
12219;BME280;6172;42.646;23.344;2023-12-20T04:26:21;94757.00;;;-2.34;100.00
12219;BME280;6172;42.646;23.344;2023-12-20T04:28:48;94753.22;;;-2.33;100.00
12219;BME280;6172;42.646;23.344;2023-12-20T04:31:15;94747.53;;;-2.43;100.00
12219;BME280;6172;42.646;23.344;2023-12-20T04:33:42;94755.34;;;-2.71;100.00
12219;BME280;6172;42.646;23.344;2023-12-20T04:36:09;94729.63;;;-2.87;100.00
12219;BME280;6172;42.646;23.344;2023-12-20T04:38:37;94743.03;;;-2.63;100.00
12219;BME280;6172;42.646;23.344;2023-12-20T04:41:05;94737.69;;;-2.63;100.00
12219;BME280;6172;42.646;23.344;2023-12-20T04:43:33;94733.38;;;-2.56;100.00
12219;BME280;6172;42.646;23.344;2023-12-20T04:46:00;94738.84;;;-2.52;100.00
12219;BME280;6172;42.646;23.344;2023-12-20T04:48:28;94733.50;;;-2.52;100.00
12219;BME280;6172;42.646;23.344;2023-12-20T04:50:55;94725.50;;;-2.52;100.00
12219;BME280;6172;42.646;23.344;2023-12-20T04:53:22;94731.03;;;-2.57;100.00
12219;BME280;6172;42.646;23.344;2023-12-20T04:55:49;94721.56;;;-2.67;100.00
12219;BME280;6172;42.646;23.344;2023-12-20T04:58:18;94725.59;;;-2.61;100.00
12219;BME280;6172;42.646;23.344;2023-12-20T05:00:45;94709.00;;;-2.66;100.00
12219;BME280;6172;42.646;23.344;2023-12-20T05:03:13;94720.78;;;-2.67;100.00
12219;BME280;6172;42.646;23.344;2023-12-20T05:05:40;94731.25;;;-2.62;100.00
12219;BME280;6172;42.646;23.344;2023-12-20T05:08:07;94721.16;;;-2.57;100.00
12219;BME280;6172;42.646;23.344;2023-12-20T05:10:34;94714.72;;;-2.56;100.00
12219;BME280;6172;42.646;23.344;2023-12-20T05:13:02;94721.50;;;-2.58;100.00
12219;BME280;6172;42.646;23.344;2023-12-20T05:15:30;94719.47;;;-2.61;100.00
12219;BME280;6172;42.646;23.344;2023-12-20T05:18:00;94704.31;;;-2.81;100.00
12219;BME280;6172;42.646;23.344;2023-12-20T05:20:27;94716.53;;;-3.33;100.00
12219;BME280;6172;42.646;23.344;2023-12-20T05:22:54;94705.16;;;-3.22;100.00
12219;BME280;6172;42.646;23.344;2023-12-20T05:25:22;94720.31;;;-3.14;100.00
12219;BME280;6172;42.646;23.344;2023-12-20T05:27:49;94709.25;;;-3.04;100.00
12219;BME280;6172;42.646;23.344;2023-12-20T05:30:16;94707.56;;;-3.29;100.00
12219;BME280;6172;42.646;23.344;2023-12-20T05:32:45;94691.88;;;-3.30;100.00
12219;BME280;6172;42.646;23.344;2023-12-20T05:35:12;94707.88;;;-3.51;100.00
12219;BME280;6172;42.646;23.344;2023-12-20T05:37:41;94706.34;;;-3.81;100.00
12219;BME280;6172;42.646;23.344;2023-12-20T05:40:10;94709.16;;;-3.77;100.00
12219;BME280;6172;42.646;23.344;2023-12-20T05:42:43;94707.53;;;-4.28;100.00
12219;BME280;6172;42.646;23.344;2023-12-20T05:45:10;94715.25;;;-4.35;100.00
12219;BME280;6172;42.646;23.344;2023-12-20T05:47:38;94693.13;;;-4.27;100.00
12219;BME280;6172;42.646;23.344;2023-12-20T05:50:08;94693.28;;;-4.24;100.00
12219;BME280;6172;42.646;23.344;2023-12-20T05:52:36;94693.97;;;-4.35;100.00
12219;BME280;6172;42.646;23.344;2023-12-20T05:55:03;94703.78;;;-4.27;100.00
12219;BME280;6172;42.646;23.344;2023-12-20T05:57:31;94694.69;;;-4.55;100.00
12219;BME280;6172;42.646;23.344;2023-12-20T05:59:58;94695.78;;;-4.65;100.00
12219;BME280;6172;42.646;23.344;2023-12-20T06:02:25;94679.81;;;-4.56;100.00
12219;BME280;6172;42.646;23.344;2023-12-20T06:04:52;94685.56;;;-4.46;100.00
12219;BME280;6172;42.646;23.344;2023-12-20T06:07:21;94686.50;;;-4.50;100.00
12219;BME280;6172;42.646;23.344;2023-12-20T06:09:48;94688.50;;;-4.39;100.00
12219;BME280;6172;42.646;23.344;2023-12-20T06:12:16;94694.81;;;-4.52;100.00
12219;BME280;6172;42.646;23.344;2023-12-20T06:14:43;94692.69;;;-4.67;100.00
12219;BME280;6172;42.646;23.344;2023-12-20T06:17:10;94684.16;;;-4.52;100.00
12219;BME280;6172;42.646;23.344;2023-12-20T06:19:37;94700.28;;;-4.48;100.00
12219;BME280;6172;42.646;23.344;2023-12-20T06:22:08;94699.63;;;-4.45;100.00
12219;BME280;6172;42.646;23.344;2023-12-20T06:24:36;94701.09;;;-4.56;100.00
12219;BME280;6172;42.646;23.344;2023-12-20T06:27:05;94704.66;;;-4.44;100.00
12219;BME280;6172;42.646;23.344;2023-12-20T06:29:43;94702.84;;;-4.69;100.00
12219;BME280;6172;42.646;23.344;2023-12-20T06:32:13;94702.53;;;-4.30;100.00
12219;BME280;6172;42.646;23.344;2023-12-20T06:34:44;94699.69;;;-3.95;100.00
12219;BME280;6172;42.646;23.344;2023-12-20T06:37:11;94697.28;;;-3.39;100.00
12219;BME280;6172;42.646;23.344;2023-12-20T06:39:39;94700.63;;;-3.09;100.00
12219;BME280;6172;42.646;23.344;2023-12-20T06:42:07;94688.91;;;-2.64;100.00
12219;BME280;6172;42.646;23.344;2023-12-20T06:44:34;94687.19;;;-2.24;100.00
12219;BME280;6172;42.646;23.344;2023-12-20T06:47:02;94681.34;;;-1.66;100.00
12219;BME280;6172;42.646;23.344;2023-12-20T06:49:30;94667.81;;;-2.33;100.00
12219;BME280;6172;42.646;23.344;2023-12-20T06:51:57;94667.50;;;-1.95;100.00
12219;BME280;6172;42.646;23.344;2023-12-20T06:54:24;94666.63;;;-1.47;100.00
12219;BME280;6172;42.646;23.344;2023-12-20T06:56:53;94670.38;;;-1.24;100.00
12219;BME280;6172;42.646;23.344;2023-12-20T06:59:20;94657.84;;;-1.48;100.00
12219;BME280;6172;42.646;23.344;2023-12-20T07:01:48;94637.13;;;-1.51;100.00
12219;BME280;6172;42.646;23.344;2023-12-20T07:04:20;94630.22;;;-1.52;100.00
12219;BME280;6172;42.646;23.344;2023-12-20T07:06:47;94645.41;;;-1.01;100.00
12219;BME280;6172;42.646;23.344;2023-12-20T07:09:16;94627.50;;;-0.85;100.00
12219;BME280;6172;42.646;23.344;2023-12-20T07:11:44;94633.72;;;-0.81;100.00
12219;BME280;6172;42.646;23.344;2023-12-20T07:14:13;94629.25;;;-0.46;100.00
12219;BME280;6172;42.646;23.344;2023-12-20T07:16:40;94620.28;;;-0.22;100.00
12219;BME280;6172;42.646;23.344;2023-12-20T07:19:08;94624.78;;;-0.11;100.00
12219;BME280;6172;42.646;23.344;2023-12-20T07:21:35;94618.84;;;-0.51;100.00
12219;BME280;6172;42.646;23.344;2023-12-20T07:24:03;94613.34;;;0.08;100.00
12219;BME280;6172;42.646;23.344;2023-12-20T07:26:30;94614.22;;;0.31;100.00
12219;BME280;6172;42.646;23.344;2023-12-20T07:28:57;94605.28;;;0.61;100.00
12219;BME280;6172;42.646;23.344;2023-12-20T07:31:25;94598.56;;;0.52;100.00
12219;BME280;6172;42.646;23.344;2023-12-20T07:33:53;94596.25;;;0.89;100.00
12219;BME280;6172;42.646;23.344;2023-12-20T07:36:20;94604.28;;;0.50;100.00
12219;BME280;6172;42.646;23.344;2023-12-20T07:38:48;94597.72;;;0.86;100.00
12219;BME280;6172;42.646;23.344;2023-12-20T07:41:15;94604.78;;;0.94;100.00
12219;BME280;6172;42.646;23.344;2023-12-20T07:43:42;94608.25;;;0.56;100.00
12219;BME280;6172;42.646;23.344;2023-12-20T07:46:10;94603.56;;;0.34;100.00
12219;BME280;6172;42.646;23.344;2023-12-20T07:48:38;94610.56;;;0.04;100.00
12219;BME280;6172;42.646;23.344;2023-12-20T07:51:07;94600.94;;;-0.31;100.00
12219;BME280;6172;42.646;23.344;2023-12-20T07:53:35;94604.53;;;-0.08;100.00
12219;BME280;6172;42.646;23.344;2023-12-20T07:56:14;94608.88;;;-0.50;100.00
12219;BME280;6172;42.646;23.344;2023-12-20T07:58:45;94598.97;;;-0.65;100.00
12219;BME280;6172;42.646;23.344;2023-12-20T08:01:15;94607.00;;;-0.65;100.00
12219;BME280;6172;42.646;23.344;2023-12-20T08:03:45;94597.50;;;-0.78;100.00
12219;BME280;6172;42.646;23.344;2023-12-20T08:06:12;94598.06;;;-0.69;100.00
12219;BME280;6172;42.646;23.344;2023-12-20T08:08:39;94604.63;;;-0.82;100.00
12219;BME280;6172;42.646;23.344;2023-12-20T08:11:06;94596.47;;;-0.58;100.00
12219;BME280;6172;42.646;23.344;2023-12-20T08:13:33;94590.75;;;-0.41;100.00
12219;BME280;6172;42.646;23.344;2023-12-20T08:16:01;94591.56;;;-0.06;100.00
12219;BME280;6172;42.646;23.344;2023-12-20T08:18:28;94585.84;;;0.11;100.00
12219;BME280;6172;42.646;23.344;2023-12-20T08:20:57;94588.53;;;0.30;100.00
12219;BME280;6172;42.646;23.344;2023-12-20T08:23:24;94581.66;;;0.67;100.00
12219;BME280;6172;42.646;23.344;2023-12-20T08:25:51;94589.63;;;1.24;100.00
12219;BME280;6172;42.646;23.344;2023-12-20T08:28:17;94579.13;;;1.38;100.00
12219;BME280;6172;42.646;23.344;2023-12-20T08:30:45;94574.44;;;0.90;100.00
12219;BME280;6172;42.646;23.344;2023-12-20T08:33:12;94573.22;;;0.88;100.00
12219;BME280;6172;42.646;23.344;2023-12-20T08:35:39;94558.13;;;0.03;100.00
12219;BME280;6172;42.646;23.344;2023-12-20T08:38:08;94549.63;;;0.01;100.00
12219;BME280;6172;42.646;23.344;2023-12-20T08:40:42;94567.44;;;0.28;100.00
12219;BME280;6172;42.646;23.344;2023-12-20T08:43:09;94554.38;;;0.08;100.00
12219;BME280;6172;42.646;23.344;2023-12-20T08:45:36;94553.84;;;0.18;100.00
12219;BME280;6172;42.646;23.344;2023-12-20T08:48:05;94532.63;;;-0.06;100.00
12219;BME280;6172;42.646;23.344;2023-12-20T08:50:32;94549.44;;;-0.09;100.00
12219;BME280;6172;42.646;23.344;2023-12-20T08:52:59;94551.72;;;0.08;100.00
12219;BME280;6172;42.646;23.344;2023-12-20T08:55:27;94559.97;;;-0.16;100.00
12219;BME280;6172;42.646;23.344;2023-12-20T08:57:56;94548.78;;;-0.37;100.00
12219;BME280;6172;42.646;23.344;2023-12-20T09:00:23;94547.28;;;-0.35;100.00
12219;BME280;6172;42.646;23.344;2023-12-20T09:02:53;94533.25;;;-0.13;100.00
12219;BME280;6172;42.646;23.344;2023-12-20T09:05:20;94524.22;;;0.30;100.00
12219;BME280;6172;42.646;23.344;2023-12-20T09:07:47;94535.63;;;0.08;100.00
12219;BME280;6172;42.646;23.344;2023-12-20T09:10:15;94518.28;;;0.02;100.00
12219;BME280;6172;42.646;23.344;2023-12-20T09:12:43;94506.25;;;-0.23;100.00
12219;BME280;6172;42.646;23.344;2023-12-20T09:15:12;94507.81;;;-0.03;100.00
12219;BME280;6172;42.646;23.344;2023-12-20T09:17:40;94492.97;;;-0.01;100.00
12219;BME280;6172;42.646;23.344;2023-12-20T09:20:09;94482.72;;;-0.14;100.00
12219;BME280;6172;42.646;23.344;2023-12-20T09:22:39;94492.69;;;-0.30;100.00
12219;BME280;6172;42.646;23.344;2023-12-20T09:25:09;94481.44;;;-0.20;100.00
12219;BME280;6172;42.646;23.344;2023-12-20T09:27:39;94475.94;;;-0.27;100.00
12219;BME280;6172;42.646;23.344;2023-12-20T09:30:08;94475.47;;;-0.14;100.00
12219;BME280;6172;42.646;23.344;2023-12-20T09:32:35;94455.66;;;-0.28;100.00
12219;BME280;6172;42.646;23.344;2023-12-20T09:35:02;94461.47;;;-0.42;100.00
12219;BME280;6172;42.646;23.344;2023-12-20T09:37:31;94458.75;;;-0.26;100.00
12219;BME280;6172;42.646;23.344;2023-12-20T09:39:58;94445.66;;;-0.66;100.00
12219;BME280;6172;42.646;23.344;2023-12-20T09:42:32;94453.28;;;-0.49;100.00
12219;BME280;6172;42.646;23.344;2023-12-20T09:45:08;94451.16;;;-0.24;100.00
12219;BME280;6172;42.646;23.344;2023-12-20T09:47:36;94443.53;;;-0.03;100.00
12219;BME280;6172;42.646;23.344;2023-12-20T09:50:05;94429.66;;;0.10;100.00
12219;BME280;6172;42.646;23.344;2023-12-20T09:52:33;94432.25;;;0.26;100.00
12219;BME280;6172;42.646;23.344;2023-12-20T09:55:01;94412.78;;;0.29;100.00
12219;BME280;6172;42.646;23.344;2023-12-20T09:57:31;94437.97;;;0.66;100.00
12219;BME280;6172;42.646;23.344;2023-12-20T09:59:58;94424.81;;;0.80;100.00
12219;BME280;6172;42.646;23.344;2023-12-20T10:02:27;94412.06;;;1.22;100.00
12219;BME280;6172;42.646;23.344;2023-12-20T10:04:55;94423.06;;;1.69;100.00
12219;BME280;6172;42.646;23.344;2023-12-20T10:07:22;94399.03;;;1.80;100.00
12219;BME280;6172;42.646;23.344;2023-12-20T10:09:51;94400.78;;;1.39;100.00
12219;BME280;6172;42.646;23.344;2023-12-20T10:12:18;94377.41;;;1.69;100.00
12219;BME280;6172;42.646;23.344;2023-12-20T10:14:45;94378.47;;;1.61;100.00
12219;BME280;6172;42.646;23.344;2023-12-20T10:17:12;94388.81;;;2.25;100.00
12219;BME280;6172;42.646;23.344;2023-12-20T10:19:43;94371.44;;;2.92;100.00
12219;BME280;6172;42.646;23.344;2023-12-20T10:22:10;94357.69;;;3.11;100.00
12219;BME280;6172;42.646;23.344;2023-12-20T10:24:39;94353.31;;;3.44;100.00
12219;BME280;6172;42.646;23.344;2023-12-20T10:27:07;94347.66;;;3.63;100.00
12219;BME280;6172;42.646;23.344;2023-12-20T10:29:35;94332.63;;;3.62;100.00
12219;BME280;6172;42.646;23.344;2023-12-20T10:32:21;94325.66;;;3.50;100.00
12219;BME280;6172;42.646;23.344;2023-12-20T10:34:51;94341.22;;;3.92;100.00
12219;BME280;6172;42.646;23.344;2023-12-20T10:37:18;94332.88;;;4.28;100.00
12219;BME280;6172;42.646;23.344;2023-12-20T10:39:49;94320.16;;;4.22;100.00
12219;BME280;6172;42.646;23.344;2023-12-20T10:42:17;94321.34;;;4.35;100.00
12219;BME280;6172;42.646;23.344;2023-12-20T10:47:30;94301.13;;;3.80;100.00
12219;BME280;6172;42.646;23.344;2023-12-20T10:50:01;94305.16;;;4.31;100.00
12219;BME280;6172;42.646;23.344;2023-12-20T10:52:32;94302.13;;;4.82;100.00
12219;BME280;6172;42.646;23.344;2023-12-20T10:55:01;94292.84;;;3.37;100.00
12219;BME280;6172;42.646;23.344;2023-12-20T10:57:29;94302.03;;;3.26;100.00
12219;BME280;6172;42.646;23.344;2023-12-20T11:00:01;94299.06;;;3.42;100.00
12219;BME280;6172;42.646;23.344;2023-12-20T11:02:32;94294.63;;;2.58;100.00
12219;BME280;6172;42.646;23.344;2023-12-20T11:05:09;94291.63;;;1.83;100.00
12219;BME280;6172;42.646;23.344;2023-12-20T11:07:42;94285.13;;;1.84;100.00
12219;BME280;6172;42.646;23.344;2023-12-20T11:10:19;94307.16;;;2.00;100.00
12219;BME280;6172;42.646;23.344;2023-12-20T11:12:51;94284.44;;;2.31;100.00
12219;BME280;6172;42.646;23.344;2023-12-20T11:15:20;94278.13;;;1.76;100.00
12219;BME280;6172;42.646;23.344;2023-12-20T11:17:54;94277.50;;;1.90;100.00
12219;BME280;6172;42.646;23.344;2023-12-20T11:20:24;94266.38;;;1.55;100.00
12219;BME280;6172;42.646;23.344;2023-12-20T11:23:02;94277.63;;;2.04;100.00
12219;BME280;6172;42.646;23.344;2023-12-20T11:25:29;94262.34;;;2.11;100.00
12219;BME280;6172;42.646;23.344;2023-12-20T11:28:10;94259.34;;;2.20;100.00
12219;BME280;6172;42.646;23.344;2023-12-20T11:30:42;94246.13;;;2.44;100.00
12219;BME280;6172;42.646;23.344;2023-12-20T11:33:09;94240.47;;;2.60;100.00
12219;BME280;6172;42.646;23.344;2023-12-20T11:35:39;94221.94;;;2.48;100.00
12219;BME280;6172;42.646;23.344;2023-12-20T11:38:08;94225.50;;;2.12;100.00
12219;BME280;6172;42.646;23.344;2023-12-20T11:40:35;94231.97;;;2.54;100.00
12219;BME280;6172;42.646;23.344;2023-12-20T11:43:03;94220.81;;;2.05;100.00
12219;BME280;6172;42.646;23.344;2023-12-20T11:45:30;94230.56;;;2.71;100.00
12219;BME280;6172;42.646;23.344;2023-12-20T11:48:00;94215.09;;;3.25;100.00
12219;BME280;6172;42.646;23.344;2023-12-20T11:50:29;94186.25;;;3.22;100.00
12219;BME280;6172;42.646;23.344;2023-12-20T11:52:59;94200.63;;;3.79;100.00
12219;BME280;6172;42.646;23.344;2023-12-20T11:55:26;94187.94;;;3.94;100.00
12219;BME280;6172;42.646;23.344;2023-12-20T11:57:53;94194.13;;;3.98;100.00
12219;BME280;6172;42.646;23.344;2023-12-20T12:00:22;94174.88;;;4.03;100.00
12219;BME280;6172;42.646;23.344;2023-12-20T12:02:58;94165.97;;;3.71;100.00
12219;BME280;6172;42.646;23.344;2023-12-20T12:05:32;94158.69;;;4.03;100.00
12219;BME280;6172;42.646;23.344;2023-12-20T12:08:01;94150.91;;;3.42;100.00
12219;BME280;6172;42.646;23.344;2023-12-20T12:10:29;94168.69;;;3.81;100.00
12219;BME280;6172;42.646;23.344;2023-12-20T12:12:56;94150.59;;;3.96;100.00
12219;BME280;6172;42.646;23.344;2023-12-20T12:15:23;94143.31;;;3.96;100.00
12219;BME280;6172;42.646;23.344;2023-12-20T12:17:54;94140.22;;;4.22;100.00
12219;BME280;6172;42.646;23.344;2023-12-20T12:20:22;94140.25;;;4.19;100.00
12219;BME280;6172;42.646;23.344;2023-12-20T12:22:58;94133.31;;;4.32;100.00
12219;BME280;6172;42.646;23.344;2023-12-20T12:25:28;94138.66;;;4.11;100.00
12219;BME280;6172;42.646;23.344;2023-12-20T12:27:56;94132.84;;;4.72;100.00
12219;BME280;6172;42.646;23.344;2023-12-20T12:30:24;94121.34;;;4.43;100.00
12219;BME280;6172;42.646;23.344;2023-12-20T12:32:52;94120.94;;;4.52;100.00
12219;BME280;6172;42.646;23.344;2023-12-20T12:35:20;94131.34;;;4.46;100.00
12219;BME280;6172;42.646;23.344;2023-12-20T12:37:47;94115.81;;;4.89;100.00
12219;BME280;6172;42.646;23.344;2023-12-20T12:40:15;94111.72;;;4.07;100.00
12219;BME280;6172;42.646;23.344;2023-12-20T12:42:51;94108.63;;;4.37;100.00
12219;BME280;6172;42.646;23.344;2023-12-20T12:45:18;94105.16;;;4.40;100.00
12219;BME280;6172;42.646;23.344;2023-12-20T12:47:45;94112.09;;;4.02;100.00
12219;BME280;6172;42.646;23.344;2023-12-20T12:50:12;94112.84;;;3.92;100.00
12219;BME280;6172;42.646;23.344;2023-12-20T12:52:40;94106.72;;;3.92;100.00
12219;BME280;6172;42.646;23.344;2023-12-20T12:55:07;94106.69;;;3.88;100.00
12219;BME280;6172;42.646;23.344;2023-12-20T12:57:35;94113.22;;;4.61;100.00
12219;BME280;6172;42.646;23.344;2023-12-20T13:00:04;94108.59;;;4.58;100.00